Time;durP1;ratioP1;P1;durP2;ratioP2;P2;SDS_P1;SDS_P2;PMS_P1;PMS_P2;Temp;Humidity;BMP_temperature;BMP_pressure;BME280_temperature;BME280_humidity;BME280_pressure;Samples;Min_cycle;Max_cycle;Signal;HPM_P1;HPM_P2
2022/09/11 00:01:15;;;;;;;42.67;5.63;;;;;;;19.89;100.00;97799.19;5017406;28;20042;-54
2022/09/11 00:03:42;;;;;;;33.95;5.50;;;;;;;19.73;100.00;97800.47;5018552;28;20027;-55
2022/09/11 00:06:10;;;;;;;29.05;5.10;;;;;;;20.40;100.00;97788.75;5017603;28;20202;-56
2022/09/11 00:08:37;;;;;;;42.75;6.18;;;;;;;20.19;100.00;97793.19;5013825;28;20025;-57
2022/09/11 00:11:15;;;;;;;36.20;5.45;;;;;;;20.72;100.00;97792.28;5018465;28;20037;-54
2022/09/11 00:13:41;;;;;;;40.13;5.75;;;;;;;20.22;100.00;97795.59;5021818;28;20029;-54
2022/09/11 00:16:20;;;;;;;32.20;5.15;;;;;;;20.53;100.00;97793.84;5020354;28;20651;-54
2022/09/11 00:18:45;;;;;;;41.42;5.80;;;;;;;20.07;100.00;97792.41;5020566;28;20025;-55
2022/09/11 00:21:11;;;;;;;33.78;4.90;;;;;;;20.07;100.00;97792.41;5017471;28;20086;-53
2022/09/11 00:23:36;;;;;;;32.88;5.20;;;;;;;19.99;100.00;97794.84;5021127;28;20030;-54
2022/09/11 00:26:03;;;;;;;28.58;4.82;;;;;;;20.12;100.00;97784.91;5017803;28;20034;-55
2022/09/11 00:28:29;;;;;;;33.00;5.10;;;;;;;20.01;100.00;97784.97;5017161;28;20027;-52
2022/09/11 00:30:57;;;;;;;44.85;6.22;;;;;;;20.10;100.00;97786.84;5013892;28;20045;-53
2022/09/11 00:33:23;;;;;;;29.23;4.72;;;;;;;20.30;100.00;97792.28;5019342;28;20129;-55
2022/09/11 00:35:57;;;;;;;39.17;5.68;;;;;;;19.95;100.00;97793.44;5020801;28;20133;-55
2022/09/11 00:38:27;;;;;;;36.60;5.47;;;;;;;19.99;100.00;97785.09;5015790;28;20033;-54
2022/09/11 00:40:53;;;;;;;43.83;6.10;;;;;;;20.17;100.00;97788.00;5018621;28;20576;-55
2022/09/11 00:43:20;;;;;;;35.22;5.40;;;;;;;19.79;100.00;97783.25;5019767;28;20025;-54
2022/09/11 00:45:51;;;;;;;31.02;5.05;;;;;;;19.84;100.00;97791.66;5017590;28;20403;-56
2022/09/11 00:48:20;;;;;;;35.67;5.15;;;;;;;20.17;100.00;97787.19;5018370;28;20027;-54
2022/09/11 00:50:47;;;;;;;34.97;5.53;;;;;;;19.98;100.00;97787.88;5018837;28;20071;-54
2022/09/11 00:53:16;;;;;;;34.75;5.63;;;;;;;20.09;100.00;97789.63;5016682;28;20021;-52
2022/09/11 00:55:46;;;;;;;31.00;5.15;;;;;;;19.66;100.00;97783.38;5016234;28;20037;-53
2022/09/11 00:58:15;;;;;;;43.72;6.30;;;;;;;19.42;100.00;97780.94;5021792;28;20447;-53
2022/09/11 01:00:43;;;;;;;38.08;5.68;;;;;;;19.64;100.00;97782.66;5018381;28;20065;-53
2022/09/11 01:03:09;;;;;;;44.75;5.95;;;;;;;20.10;100.00;97772.78;5018581;28;20034;-55
2022/09/11 01:05:38;;;;;;;26.58;4.68;;;;;;;19.27;100.00;97783.00;5013989;28;20037;-53
2022/09/11 01:08:05;;;;;;;31.50;5.25;;;;;;;19.20;100.00;97781.81;5014327;28;20034;-54
2022/09/11 01:10:57;;;;;;;33.33;5.35;;;;;;;19.05;100.00;97790.00;5019599;28;20128;-54
2022/09/11 01:13:53;;;;;;;40.92;5.78;;;;;;;19.44;100.00;97773.72;5017750;28;20058;-53
2022/09/11 01:16:41;;;;;;;40.83;6.10;;;;;;;19.19;100.00;97785.44;5016278;28;20135;-53
2022/09/11 01:19:48;;;;;;;32.50;4.95;;;;;;;19.27;100.00;97775.06;4970912;28;20598;-55
2022/09/11 01:22:30;;;;;;;34.40;5.40;;;;;;;19.29;100.00;97777.59;5014228;28;20192;-55
2022/09/11 01:25:14;;;;;;;30.30;4.68;;;;;;;18.82;100.00;97777.75;5015285;28;20554;-53
2022/09/11 01:27:49;;;;;;;34.15;5.20;;;;;;;18.95;100.00;97774.97;5016592;28;20934;-53
2022/09/11 01:30:18;;;;;;;29.42;4.55;;;;;;;19.14;100.00;97777.84;5012579;28;20553;-57
2022/09/11 01:33:14;;;;;;;33.72;5.03;;;;;;;19.37;100.00;97770.75;5017553;28;20032;-53
2022/09/11 01:35:48;;;;;;;34.95;5.47;;;;;;;19.14;100.00;97784.94;5015833;28;21006;-54
2022/09/11 01:38:38;;;;;;;30.95;4.43;;;;;;;19.93;100.00;97774.19;5021689;28;20075;-53
2022/09/11 01:41:26;;;;;;;39.60;5.80;;;;;;;19.04;100.00;97782.19;5018809;28;20030;-53
2022/09/11 01:43:57;;;;;;;31.95;4.72;;;;;;;19.15;100.00;97773.41;5017951;28;20134;-53
2022/09/11 01:46:26;;;;;;;27.80;4.95;;;;;;;19.14;100.00;97782.31;5021868;28;20573;-52
2022/09/11 01:49:05;;;;;;;36.92;5.60;;;;;;;18.83;100.00;97784.72;5022613;28;20057;-55
2022/09/11 01:51:34;;;;;;;28.63;4.63;;;;;;;18.99;100.00;97789.66;5020565;28;20078;-54
2022/09/11 01:54:01;;;;;;;29.55;4.90;;;;;;;18.97;100.00;97779.19;5020066;28;20084;-52
2022/09/11 01:56:33;;;;;;;31.42;5.32;;;;;;;19.00;100.00;97775.47;5023248;28;20038;-55
2022/09/11 01:59:04;;;;;;;27.97;4.87;;;;;;;18.68;100.00;97787.56;5015877;28;20033;-54
2022/09/11 02:01:34;;;;;;;27.25;4.57;;;;;;;18.57;100.00;97784.91;5022932;28;20697;-53
2022/09/11 02:04:06;;;;;;;35.33;5.47;;;;;;;18.74;100.00;97775.66;5018665;28;20036;-53
2022/09/11 02:06:37;;;;;;;31.50;4.78;;;;;;;19.20;100.00;97779.16;5019337;28;20072;-53
2022/09/11 02:09:07;;;;;;;25.63;4.72;;;;;;;19.35;100.00;97774.44;5020097;28;20798;-54
2022/09/11 02:11:39;;;;;;;25.42;4.18;;;;;;;19.67;100.00;97769.19;5015872;28;20073;-53
2022/09/11 02:14:25;;;;;;;29.67;5.05;;;;;;;19.38;100.00;97764.47;5018673;28;20026;-54
2022/09/11 02:16:58;;;;;;;25.98;4.75;;;;;;;19.39;100.00;97760.00;5017457;28;20598;-56
2022/09/11 02:19:27;;;;;;;22.65;4.30;;;;;;;19.04;100.00;97767.19;5022580;28;20025;-53
2022/09/11 02:21:52;;;;;;;24.75;4.50;;;;;;;19.51;100.00;97763.47;5018362;28;20597;-53
2022/09/11 02:24:20;;;;;;;26.40;4.68;;;;;;;19.65;100.00;97757.91;5024575;28;20034;-53
2022/09/11 02:27:04;;;;;;;24.48;4.60;;;;;;;19.47;100.00;97754.97;5018652;28;20037;-56
2022/09/11 02:29:29;;;;;;;23.65;4.55;;;;;;;19.02;100.00;97753.25;5021335;28;20064;-53
2022/09/11 02:31:55;;;;;;;23.92;4.30;;;;;;;19.75;100.00;97750.91;5021199;28;20045;-54
2022/09/11 02:34:28;;;;;;;29.65;5.00;;;;;;;19.64;100.00;97749.09;5020695;28;20051;-52
2022/09/11 02:37:15;;;;;;;25.13;4.85;;;;;;;19.12;100.00;97753.34;5023397;28;20120;-53
2022/09/11 02:40:07;;;;;;;28.77;4.57;;;;;;;19.78;100.00;97745.38;5022552;28;20112;-54
2022/09/11 02:42:53;;;;;;;26.48;4.80;;;;;;;18.81;100.00;97762.88;5021485;28;20054;-55
2022/09/11 02:45:56;;;;;;;38.95;6.13;;;;;;;19.24;100.00;97752.38;5023178;28;20076;-55
2022/09/11 02:48:49;;;;;;;33.42;5.80;;;;;;;19.20;100.00;97752.72;5021630;28;20566;-53
2022/09/11 02:51:36;;;;;;;32.47;5.47;;;;;;;19.75;100.00;97744.78;5018869;28;20112;-54
2022/09/11 02:54:44;;;;;;;28.88;5.20;;;;;;;19.20;100.00;97748.28;5022583;28;20025;-53
2022/09/11 02:57:20;;;;;;;26.30;5.18;;;;;;;18.94;100.00;97750.34;5009424;28;20060;-54
2022/09/11 02:59:52;;;;;;;23.15;4.10;;;;;;;18.78;100.00;97749.84;5019681;28;20017;-55
2022/09/11 03:02:18;;;;;;;28.98;4.93;;;;;;;18.96;100.00;97761.66;5023203;28;20075;-53
2022/09/11 03:04:44;;;;;;;29.80;5.00;;;;;;;19.42;100.00;97749.19;5023214;28;20119;-56
2022/09/11 03:07:09;;;;;;;31.15;5.28;;;;;;;19.37;100.00;97740.78;5015652;28;20132;-54
2022/09/11 03:09:35;;;;;;;33.13;5.20;;;;;;;18.97;100.00;97751.94;5017482;28;20029;-53
2022/09/11 03:12:02;;;;;;;26.15;5.20;;;;;;;18.58;100.00;97747.00;5020760;28;20068;-54
2022/09/11 03:14:27;;;;;;;27.13;4.80;;;;;;;18.93;100.00;97738.13;5023218;28;20033;-53
2022/09/11 03:16:54;;;;;;;23.13;4.47;;;;;;;18.92;100.00;97746.16;5019835;28;20096;-54
2022/09/11 03:19:20;;;;;;;23.88;4.97;;;;;;;19.23;100.00;97737.47;5025850;28;20021;-57
2022/09/11 03:21:45;;;;;;;31.45;4.72;;;;;;;19.35;100.00;97743.53;5020370;28;20045;-54
2022/09/11 03:24:12;;;;;;;27.17;4.63;;;;;;;18.68;100.00;97749.75;5022632;28;20040;-53
2022/09/11 03:26:37;;;;;;;29.08;4.85;;;;;;;19.30;100.00;97753.69;5016704;28;20041;-53
2022/09/11 03:29:03;;;;;;;16.80;3.83;;;;;;;19.21;100.00;97746.50;5015352;28;20037;-53
2022/09/11 03:31:29;;;;;;;25.23;4.65;;;;;;;19.86;100.00;97736.78;5000689;28;20155;-53
2022/09/11 03:33:54;;;;;;;32.92;5.32;;;;;;;19.29;100.00;97746.69;5020315;28;20593;-54
2022/09/11 03:36:21;;;;;;;23.55;4.93;;;;;;;19.05;100.00;97750.34;5023260;28;20048;-53
2022/09/11 03:38:47;;;;;;;31.65;5.57;;;;;;;18.83;100.00;97753.00;5019371;28;20110;-56
2022/09/11 03:41:13;;;;;;;25.20;5.18;;;;;;;19.26;100.00;97750.44;5021054;28;20125;-54
2022/09/11 03:43:39;;;;;;;32.35;6.30;;;;;;;18.83;100.00;97758.28;5013610;28;20034;-54
2022/09/11 03:46:04;;;;;;;31.30;5.80;;;;;;;19.47;100.00;97754.13;5016870;28;20201;-57
2022/09/11 03:48:30;;;;;;;27.15;6.05;;;;;;;18.67;100.00;97759.47;5018083;28;20620;-54
2022/09/11 03:50:55;;;;;;;38.83;7.18;;;;;;;18.78;100.00;97774.47;5021467;28;20133;-54
2022/09/11 03:53:21;;;;;;;25.10;5.55;;;;;;;19.42;100.00;97760.59;4990308;28;20036;-54
2022/09/11 03:55:48;;;;;;;27.23;5.35;;;;;;;19.29;100.00;97759.91;5019408;28;20084;-55
2022/09/11 03:58:14;;;;;;;26.25;5.72;;;;;;;19.29;100.00;97759.09;5018396;28;20053;-54
2022/09/11 04:00:42;;;;;;;28.25;5.00;;;;;;;19.97;100.00;97762.38;5014715;28;20921;-56
2022/09/11 04:03:09;;;;;;;35.92;6.25;;;;;;;19.53;100.00;97762.38;5019495;28;20024;-56
2022/09/11 04:05:35;;;;;;;22.00;5.10;;;;;;;19.33;100.00;97766.63;5019040;28;20063;-53
2022/09/11 04:08:01;;;;;;;25.65;4.65;;;;;;;20.01;100.00;97767.25;5019701;28;20579;-54
2022/09/11 04:10:29;;;;;;;26.27;5.07;;;;;;;20.02;100.00;97768.13;5015985;28;20069;-56
2022/09/11 04:12:54;;;;;;;21.60;5.97;;;;;;;19.61;100.00;97764.41;5022164;28;20423;-56
2022/09/11 04:15:20;;;;;;;26.10;5.25;;;;;;;19.91;100.00;97760.25;5020420;28;20021;-54
2022/09/11 04:17:46;;;;;;;32.15;5.78;;;;;;;19.17;100.00;97780.25;5016833;28;20507;-56
2022/09/11 04:20:11;;;;;;;30.02;5.85;;;;;;;19.56;100.00;97775.38;5016974;28;20025;-54
2022/09/11 04:22:39;;;;;;;24.45;5.38;;;;;;;19.43;100.00;97777.34;5015015;28;20456;-54
2022/09/11 04:25:06;;;;;;;19.50;4.70;;;;;;;19.73;100.00;97774.00;5019793;28;20569;-55
2022/09/11 04:27:32;;;;;;;20.65;5.07;;;;;;;19.55;100.00;97772.84;5021006;28;20195;-54
2022/09/11 04:29:57;;;;;;;19.80;4.88;;;;;;;19.93;100.00;97782.13;5018241;28;20137;-54
2022/09/11 04:32:22;;;;;;;28.75;5.30;;;;;;;19.89;100.00;97784.19;5017337;28;20132;-54
2022/09/11 04:34:48;;;;;;;27.95;5.63;;;;;;;19.42;100.00;97783.56;5019227;28;20029;-53
2022/09/11 04:37:15;;;;;;;27.88;5.70;;;;;;;19.64;100.00;97785.31;5021080;28;20041;-52
2022/09/11 04:39:41;;;;;;;22.00;5.18;;;;;;;19.77;100.00;97791.31;5020142;28;20044;-53
2022/09/11 04:42:07;;;;;;;21.80;4.53;;;;;;;19.47;100.00;97788.50;5015530;28;20042;-53
2022/09/11 04:44:33;;;;;;;26.45;5.05;;;;;;;19.80;100.00;97788.41;5021072;28;20708;-53
2022/09/11 04:46:58;;;;;;;31.77;5.95;;;;;;;19.84;100.00;97787.19;5015622;28;20105;-55
2022/09/11 04:49:23;;;;;;;24.00;5.50;;;;;;;19.71;100.00;97802.38;5015929;28;20025;-54
2022/09/11 04:51:49;;;;;;;35.30;5.93;;;;;;;20.25;100.00;97789.19;5012715;28;20048;-54
2022/09/11 04:54:17;;;;;;;21.75;5.25;;;;;;;19.69;100.00;97793.72;5015588;28;20174;-57
2022/09/11 04:56:43;;;;;;;27.90;4.82;;;;;;;20.42;100.00;97792.09;5014804;28;20128;-57
2022/09/11 04:59:18;;;;;;;21.90;4.85;;;;;;;20.45;100.00;97801.56;5019887;28;20034;-57
2022/09/11 05:01:45;;;;;;;32.63;5.97;;;;;;;19.87;100.00;97806.44;5016194;28;20133;-56
2022/09/11 05:04:11;;;;;;;24.88;5.78;;;;;;;19.63;100.00;97808.28;5021291;28;20761;-55
2022/09/11 05:06:37;;;;;;;24.63;5.00;;;;;;;19.83;100.00;97817.28;5017566;28;20033;-56
2022/09/11 05:09:05;;;;;;;22.83;5.25;;;;;;;19.60;100.00;97815.63;5016737;28;20038;-54
2022/09/11 05:11:31;;;;;;;25.33;5.22;;;;;;;19.78;100.00;97824.75;5017724;28;20042;-56
2022/09/11 05:13:59;;;;;;;31.90;5.85;;;;;;;19.42;100.00;97828.53;5022259;28;20034;-54
2022/09/11 05:16:27;;;;;;;24.13;4.68;;;;;;;20.38;100.00;97811.00;5019359;28;20103;-57
2022/09/11 05:18:53;;;;;;;28.65;5.28;;;;;;;19.83;100.00;97827.88;5010586;28;20040;-57
2022/09/11 05:21:21;;;;;;;22.30;5.60;;;;;;;19.70;100.00;97832.44;5023132;28;20041;-57
2022/09/11 05:23:49;;;;;;;25.92;6.28;;;;;;;19.74;100.00;97823.34;5019586;28;20037;-56
2022/09/11 05:26:18;;;;;;;21.63;4.78;;;;;;;20.12;100.00;97835.22;5021545;28;20045;-54
2022/09/11 05:28:44;;;;;;;22.05;4.60;;;;;;;20.38;100.00;97833.06;5022914;28;20025;-54
2022/09/11 05:31:17;;;;;;;30.58;6.13;;;;;;;20.26;100.00;97825.31;5021688;28;20444;-53
2022/09/11 05:33:45;;;;;;;23.67;5.13;;;;;;;20.44;100.00;97847.59;5019946;28;20481;-57
2022/09/11 05:36:12;;;;;;;34.65;5.68;;;;;;;20.49;100.00;97845.38;5013624;28;20049;-54
2022/09/11 05:38:39;;;;;;;22.10;5.20;;;;;;;20.34;100.00;97847.50;5026516;28;20030;-54
2022/09/11 05:41:05;;;;;;;33.15;6.68;;;;;;;20.06;100.00;97856.91;5023048;28;21000;-54
2022/09/11 05:43:34;;;;;;;26.15;5.38;;;;;;;20.49;100.00;97855.97;5019109;28;20022;-56
2022/09/11 05:46:00;;;;;;;24.30;5.35;;;;;;;20.74;100.00;97859.25;5024455;28;20041;-54
2022/09/11 05:48:30;;;;;;;23.25;4.70;;;;;;;20.64;100.00;97864.50;5019629;28;20106;-53
2022/09/11 05:51:08;;;;;;;29.88;5.68;;;;;;;20.35;100.00;97874.84;5017282;28;20970;-54
2022/09/11 05:53:34;;;;;;;23.55;4.55;;;;;;;20.56;100.00;97870.38;5023013;28;20026;-53
2022/09/11 05:56:08;;;;;;;24.38;6.10;;;;;;;19.56;100.00;97881.19;5020680;28;20037;-54
2022/09/11 05:58:33;;;;;;;22.52;4.80;;;;;;;20.46;100.00;97882.75;5019603;28;20034;-56
2022/09/11 06:01:08;;;;;;;32.80;5.70;;;;;;;19.99;100.00;97875.09;5021372;28;20437;-56
2022/09/11 06:03:37;;;;;;;20.55;4.75;;;;;;;20.03;100.00;97881.84;5021935;28;20128;-55
2022/09/11 06:06:06;;;;;;;28.85;6.40;;;;;;;20.37;100.00;97889.66;5021164;28;20064;-57
2022/09/11 06:08:33;;;;;;;30.17;6.18;;;;;;;20.15;100.00;97885.28;5023647;28;20576;-56
2022/09/11 06:10:59;;;;;;;36.58;7.18;;;;;;;20.31;100.00;97891.94;5021330;28;20657;-56
2022/09/11 06:13:28;;;;;;;29.17;5.40;;;;;;;20.31;100.00;97895.47;5017028;28;20044;-55
2022/09/11 06:15:54;;;;;;;21.15;5.65;;;;;;;19.82;100.00;97905.59;5004319;28;20029;-55
2022/09/11 06:18:19;;;;;;;27.77;6.30;;;;;;;20.50;100.00;97904.53;5025167;28;20025;-55
2022/09/11 06:21:07;;;;;;;21.35;4.68;;;;;;;20.52;100.00;97908.72;5016539;28;20067;-55
2022/09/11 06:23:34;;;;;;;30.25;6.43;;;;;;;20.00;100.00;97913.00;5020884;28;20026;-56
2022/09/11 06:26:07;;;;;;;25.40;4.93;;;;;;;20.95;100.00;97905.16;5021413;28;20037;-56
2022/09/11 06:28:34;;;;;;;33.88;6.45;;;;;;;20.53;100.00;97907.75;5017491;28;20072;-55
2022/09/11 06:31:01;;;;;;;27.08;5.00;;;;;;;21.13;100.00;97907.19;5020610;28;20041;-57
2022/09/11 06:33:33;;;;;;;17.52;4.22;;;;;;;20.63;100.00;97909.69;5022805;28;20148;-55
2022/09/11 06:36:00;;;;;;;23.35;4.72;;;;;;;20.78;100.00;97911.03;4997269;28;20045;-54
2022/09/11 06:38:26;;;;;;;23.75;4.85;;;;;;;20.70;100.00;97916.16;5021412;28;20906;-54
2022/09/11 06:40:53;;;;;;;32.65;5.47;;;;;;;21.14;100.00;97915.00;5020410;28;20739;-57
2022/09/11 06:43:18;;;;;;;20.42;4.93;;;;;;;21.14;100.00;97915.00;5023341;28;20472;-54
2022/09/11 06:45:45;;;;;;;32.88;5.95;;;;;;;21.07;100.00;97918.31;5018223;28;20040;-56
2022/09/11 06:48:11;;;;;;;30.00;5.53;;;;;;;20.93;100.00;97928.28;5019860;28;20036;-55
2022/09/11 06:50:39;;;;;;;31.25;5.35;;;;;;;21.19;100.00;97922.56;5018507;28;20042;-57
2022/09/11 06:53:09;;;;;;;20.83;4.40;;;;;;;20.83;100.00;97932.69;5017375;28;20034;-55
2022/09/11 06:55:35;;;;;;;26.27;4.57;;;;;;;20.98;100.00;97936.69;5021614;28;20119;-56
2022/09/11 06:58:03;;;;;;;39.17;6.32;;;;;;;21.70;100.00;97927.00;5015721;28;20214;-56
2022/09/11 07:00:29;;;;;;;28.45;5.18;;;;;;;21.05;100.00;97944.13;5019533;28;20652;-54
2022/09/11 07:02:55;;;;;;;37.63;5.65;;;;;;;21.33;100.00;97939.97;5018555;28;20026;-55
2022/09/11 07:05:21;;;;;;;29.52;4.93;;;;;;;21.11;100.00;97948.91;5005508;28;20044;-54
2022/09/11 07:07:49;;;;;;;25.08;4.78;;;;;;;21.22;100.00;97948.84;5017241;28;20026;-55
2022/09/11 07:10:15;;;;;;;26.65;4.45;;;;;;;21.11;100.00;97946.25;5017140;28;20025;-55
2022/09/11 07:12:41;;;;;;;24.75;4.10;;;;;;;21.60;100.00;97946.53;5016422;28;20052;-55
2022/09/11 07:15:07;;;;;;;29.92;4.88;;;;;;;21.19;100.00;97949.09;5016910;28;20029;-55
2022/09/11 07:17:33;;;;;;;27.65;5.05;;;;;;;21.20;100.00;97956.09;5013849;28;20708;-54
2022/09/11 07:19:58;;;;;;;32.33;5.03;;;;;;;21.81;100.00;97957.09;5012715;28;20120;-53
2022/09/11 07:22:24;;;;;;;23.25;4.43;;;;;;;21.54;100.00;97959.38;5016111;28;20117;-55
2022/09/11 07:24:53;;;;;;;31.50;4.68;;;;;;;21.50;100.00;97959.75;5016299;28;20471;-57
2022/09/11 07:27:19;;;;;;;31.50;4.78;;;;;;;21.76;100.00;97957.47;5013635;28;20243;-57
2022/09/11 07:29:44;;;;;;;23.23;3.75;;;;;;;21.59;100.00;97974.88;5021327;28;20087;-55
2022/09/11 07:32:10;;;;;;;23.55;4.30;;;;;;;21.81;100.00;97965.06;5014804;28;20053;-53
2022/09/11 07:34:35;;;;;;;27.88;4.65;;;;;;;21.50;100.00;97967.72;5017152;28;20033;-56
2022/09/11 07:37:00;;;;;;;24.90;4.22;;;;;;;21.67;100.00;97980.38;5005369;28;20029;-55
2022/09/11 07:39:26;;;;;;;36.80;5.53;;;;;;;21.97;100.00;97976.00;5016478;28;20017;-55
2022/09/11 07:41:51;;;;;;;29.67;5.05;;;;;;;21.67;100.00;97979.50;5017051;28;20068;-54
2022/09/11 07:44:18;;;;;;;30.02;4.63;;;;;;;21.89;100.00;97983.78;5015468;28;20057;-54
2022/09/11 07:46:43;;;;;;;27.05;4.75;;;;;;;21.74;100.00;97984.19;5014574;28;20175;-56
2022/09/11 07:49:10;;;;;;;22.63;3.92;;;;;;;22.29;100.00;97998.88;5021830;28;20049;-54
2022/09/11 07:51:38;;;;;;;36.45;5.57;;;;;;;22.18;100.00;97998.97;5022190;28;20056;-54
2022/09/11 07:54:03;;;;;;;28.67;4.28;;;;;;;22.28;100.00;97998.06;5016656;28;20052;-54
2022/09/11 07:56:29;;;;;;;34.63;5.57;;;;;;;21.84;100.00;98001.97;5016886;28;20120;-54
2022/09/11 07:58:56;;;;;;;25.88;4.47;;;;;;;22.45;100.00;97995.72;5017949;28;20853;-54
2022/09/11 08:01:24;;;;;;;30.60;4.80;;;;;;;22.26;100.00;98007.16;5017858;28;20150;-54
2022/09/11 08:03:57;;;;;;;26.70;4.75;;;;;;;22.43;100.00;98011.78;4962112;28;20022;-56
2022/09/11 08:06:24;;;;;;;25.80;3.95;;;;;;;23.28;100.00;98007.59;5016464;28;20107;-55
2022/09/11 08:08:58;;;;;;;21.63;4.22;;;;;;;22.93;100.00;98005.50;5021423;28;20033;-53
2022/09/11 08:11:26;;;;;;;26.00;4.47;;;;;;;23.28;100.00;98012.91;5019621;28;20072;-55
2022/09/11 08:13:52;;;;;;;41.05;5.90;;;;;;;23.08;100.00;98011.28;5018565;28;20029;-55
2022/09/11 08:16:19;;;;;;;27.02;5.10;;;;;;;22.83;100.00;98018.81;5017279;28;20034;-54
2022/09/11 08:18:46;;;;;;;36.90;5.18;;;;;;;22.67;100.00;98021.19;5017145;28;20161;-54
2022/09/11 08:21:12;;;;;;;31.77;4.75;;;;;;;23.42;100.00;98016.13;5016231;28;20042;-54
2022/09/11 08:23:40;;;;;;;26.85;4.20;;;;;;;23.11;100.00;98018.97;5017040;28;20029;-54
2022/09/11 08:26:20;;;;;;;25.33;4.20;;;;;;;24.05;100.00;98026.16;5017151;28;20120;-54
2022/09/11 08:28:49;;;;;;;30.20;4.60;;;;;;;23.93;100.00;98025.53;5018269;28;20029;-54
2022/09/11 08:31:16;;;;;;;20.73;3.78;;;;;;;23.68;100.00;98021.66;5017780;28;20053;-54
2022/09/11 08:33:41;;;;;;;20.50;3.50;;;;;;;24.35;100.00;98019.66;5021092;28;20034;-54
2022/09/11 08:36:09;;;;;;;25.35;3.97;;;;;;;23.83;100.00;98024.72;5018202;28;20068;-54
2022/09/11 08:38:36;;;;;;;23.73;3.70;;;;;;;24.28;100.00;98036.41;5017759;28;20048;-55
2022/09/11 08:41:48;;;;;;;42.53;5.88;;;;;;;23.83;100.00;98035.38;5019927;28;20064;-56
2022/09/11 08:44:14;;;;;;;;;;;;;;;24.35;100.00;98034.84;5016463;28;20018;-54
2022/09/11 08:46:45;;;;;;;24.10;3.97;;;;;;;23.93;100.00;98044.16;5021416;28;19928;-54
2022/09/11 08:49:24;;;;;;;25.15;4.13;;;;;;;23.09;100.00;98047.53;5023140;28;20804;-53
2022/09/11 08:51:52;;;;;;;28.10;4.40;;;;;;;24.14;100.00;98043.09;5017843;28;20089;-54
2022/09/11 08:54:32;;;;;;;21.50;3.72;;;;;;;23.63;100.00;98056.69;5019103;28;20033;-57
2022/09/11 08:57:22;;;;;;;30.63;4.45;;;;;;;23.42;100.00;98050.72;5019219;28;20044;-56
2022/09/11 09:00:06;;;;;;;25.00;3.75;;;;;;;22.94;100.00;98054.22;5018401;28;20029;-57
2022/09/11 09:02:53;;;;;;;31.23;4.75;;;;;;;22.97;100.00;98059.25;5021704;28;20050;-58
2022/09/11 09:05:43;;;;;;;25.23;4.45;;;;;;;23.59;100.00;98060.63;5022163;28;20341;-56
2022/09/11 09:08:17;;;;;;;25.88;4.07;;;;;;;23.60;100.00;98067.66;5019285;28;20134;-57
2022/09/11 09:11:08;;;;;;;26.40;4.35;;;;;;;23.36;100.00;98070.78;5014590;28;20122;-58
2022/09/11 09:13:55;;;;;;;23.70;3.72;;;;;;;24.33;100.00;98063.47;5023588;28;20475;-58
2022/09/11 09:16:51;;;;;;;30.55;4.47;;;;;;;24.30;100.00;98059.28;5021894;28;20049;-56
2022/09/11 09:19:19;;;;;;;26.33;4.20;;;;;;;23.06;100.00;98063.78;5020814;28;20075;-56
2022/09/11 09:22:09;;;;;;;24.60;3.83;;;;;;;23.37;100.00;98067.13;5021583;28;20052;-55
2022/09/11 09:24:59;;;;;;;23.65;3.72;;;;;;;23.35;100.00;98063.75;5020505;28;20558;-55
2022/09/11 09:27:34;;;;;;;28.95;4.13;;;;;;;23.56;100.00;98071.56;5017261;28;20033;-55
2022/09/11 09:30:04;;;;;;;24.58;4.05;;;;;;;23.02;100.00;98075.66;5020655;28;20515;-56
2022/09/11 09:32:38;;;;;;;36.35;4.68;;;;;;;23.42;100.00;98077.34;5018885;28;20523;-55
2022/09/11 09:35:15;;;;;;;23.58;3.78;;;;;;;22.88;100.00;98077.75;5014503;28;20020;-57
2022/09/11 09:37:41;;;;;;;29.20;4.45;;;;;;;23.20;100.00;98075.81;5022883;28;20582;-57
2022/09/11 09:40:09;;;;;;;26.23;4.15;;;;;;;23.40;100.00;98076.66;5020908;28;20071;-56
2022/09/11 09:42:56;;;;;;;34.15;4.88;;;;;;;23.09;100.00;98079.47;5019287;28;20026;-55
2022/09/11 09:45:34;;;;;;;22.13;3.72;;;;;;;24.35;100.00;98070.31;5022662;28;20531;-55
2022/09/11 09:48:00;;;;;;;25.88;4.15;;;;;;;23.70;100.00;98077.44;5021275;28;20025;-54
2022/09/11 09:50:32;;;;;;;19.23;3.35;;;;;;;24.36;100.00;98069.34;5016893;28;20033;-56
2022/09/11 09:53:10;;;;;;;22.23;3.75;;;;;;;24.54;100.00;98076.59;5017349;28;20057;-55
2022/09/11 09:55:39;;;;;;;23.50;3.97;;;;;;;24.81;100.00;98070.34;5015742;28;20041;-58
2022/09/11 09:58:06;;;;;;;32.15;4.65;;;;;;;24.18;100.00;98079.09;5017455;28;20134;-58
2022/09/11 10:00:34;;;;;;;24.33;4.00;;;;;;;23.58;100.00;98080.25;5020062;28;20096;-57
2022/09/11 10:03:17;;;;;;;25.67;4.00;;;;;;;23.71;100.00;98079.09;5000391;28;20045;-56
2022/09/11 10:05:43;;;;;;;30.42;4.25;;;;;;;23.52;100.00;98083.47;5016709;28;20033;-55
2022/09/11 10:08:25;;;;;;;23.33;3.83;;;;;;;23.73;100.00;98088.63;5017902;28;20041;-57
2022/09/11 10:10:56;;;;;;;;;;;;;;;24.25;100.00;98077.53;5018666;28;20068;-54
2022/09/11 10:13:24;;;;;;;24.02;3.78;;;;;;;23.61;100.00;98079.97;5017149;28;19924;-61
2022/09/11 10:15:52;;;;;;;30.70;4.55;;;;;;;24.16;100.00;98070.44;5016880;28;20083;-59
2022/09/11 10:18:42;;;;;;;23.30;3.58;;;;;;;24.36;100.00;98077.34;5020201;28;20037;-59
2022/09/11 10:21:10;;;;;;;36.55;5.45;;;;;;;23.47;100.00;98078.59;5006670;28;20053;-59
2022/09/11 10:23:49;;;;;;;22.02;3.70;;;;;;;23.75;100.00;98075.19;5023161;28;20048;-59
2022/09/11 10:26:21;;;;;;;24.85;4.13;;;;;;;24.41;100.00;98077.72;5017175;28;20041;-59
2022/09/11 10:28:47;;;;;;;26.40;4.35;;;;;;;26.49;100.00;98078.22;5020098;28;20031;-59
2022/09/11 10:31:17;;;;;;;28.73;4.60;;;;;;;25.90;100.00;98078.09;5022476;28;20065;-59
2022/09/11 10:33:59;;;;;;;23.52;3.95;;;;;;;26.79;100.00;98080.50;5018268;28;20025;-60
2022/09/11 10:36:27;;;;;;;26.17;4.22;;;;;;;28.12;100.00;98075.75;5021108;28;20045;-59
2022/09/11 10:38:54;;;;;;;22.95;4.63;;;;;;;26.92;100.00;98064.78;5022921;28;20030;-61
2022/09/11 10:41:25;;;;;;;22.73;4.13;;;;;;;27.39;100.00;98072.22;5019511;28;20041;-60
2022/09/11 10:44:00;;;;;;;25.00;4.30;;;;;;;26.77;100.00;98071.81;5012548;28;20508;-59
2022/09/11 10:46:36;;;;;;;20.92;3.75;;;;;;;26.82;100.00;98069.47;5018705;28;20134;-59
2022/09/11 10:49:01;;;;;;;22.55;3.95;;;;;;;26.61;100.00;98072.59;5017084;28;20026;-60
2022/09/11 10:51:38;;;;;;;24.97;4.27;;;;;;;25.71;100.00;98070.28;5011864;28;20033;-60
2022/09/11 10:54:15;;;;;;;20.35;3.95;;;;;;;25.22;100.00;98068.06;5018026;28;20804;-63
2022/09/11 10:56:54;;;;;;;21.73;4.30;;;;;;;25.26;100.00;98071.31;5012945;28;20045;-58
2022/09/11 10:59:25;;;;;;;27.98;4.90;;;;;;;24.98;100.00;98074.03;5020755;28;20020;-60
2022/09/11 11:01:50;;;;;;;20.52;4.07;;;;;;;24.90;100.00;98077.44;5016997;28;20041;-61
2022/09/11 11:04:16;;;;;;;19.35;3.67;;;;;;;24.77;100.00;98071.66;5016696;28;20024;-62
2022/09/11 11:06:55;;;;;;;22.75;4.38;;;;;;;24.71;100.00;98082.94;5022913;28;20033;-58
2022/09/11 11:09:32;;;;;;;22.40;4.35;;;;;;;24.52;100.00;98081.16;5019622;28;20044;-60
2022/09/11 11:12:20;;;;;;;33.17;5.43;;;;;;;24.95;100.00;98079.66;5016239;28;20119;-60
2022/09/11 11:14:54;;;;;;;32.67;5.57;;;;;;;25.36;100.00;98082.72;5019160;28;20026;-60
2022/09/11 11:17:48;;;;;;;31.10;5.38;;;;;;;24.78;100.00;98087.50;5015901;28;20137;-63
2022/09/11 11:20:51;;;;;;;34.30;5.60;;;;;;;25.29;100.00;98095.00;5020194;28;20029;-61
2022/09/11 11:23:39;;;;;;;;;;;;;;;24.81;100.00;98078.34;5012266;28;20061;-61
2022/09/11 11:26:35;;;;;;;39.92;6.25;;;;;;;25.51;100.00;98078.50;5015624;28;20595;-61
2022/09/11 11:29:17;;;;;;;28.70;5.03;;;;;;;25.75;100.00;98088.53;5019094;28;20104;-61
2022/09/11 11:32:01;;;;;;;;;;;;;;;25.94;100.00;98084.81;5014111;28;20044;-62
2022/09/11 11:34:51;;;;;;;20.67;4.32;;;;;;;26.27;100.00;98093.00;5015909;28;20005;-62
2022/09/11 11:37:22;;;;;;;22.30;4.60;;;;;;;26.54;100.00;98088.41;5016244;28;20490;-62
2022/09/11 11:40:22;;;;;;;27.83;4.97;;;;;;;26.77;100.00;98091.34;5011121;28;20032;-58